createdAt,value
2023-02-05T00:00:52.939Z,25.47
2023-02-05T00:03:24.484Z,24.40
2023-02-05T00:05:52.560Z,21.93
2023-02-05T00:08:20.727Z,30.37
2023-02-05T00:10:53.062Z,24.53
2023-02-05T00:13:21.723Z,25.00
2023-02-05T00:15:49.788Z,21.83
2023-02-05T00:18:18.342Z,24.47
2023-02-05T00:20:46.345Z,24.07
2023-02-05T00:23:14.968Z,25.57
2023-02-05T00:25:44.637Z,28.33
2023-02-05T00:28:13.031Z,25.30
2023-02-05T00:30:42.460Z,26.03
2023-02-05T00:33:10.714Z,24.60
2023-02-05T00:35:39.132Z,22.83
2023-02-05T00:38:08.326Z,26.93
2023-02-05T00:40:36.841Z,23.73
2023-02-05T00:43:04.701Z,25.83
2023-02-05T00:45:35.966Z,27.07
2023-02-05T00:48:07.497Z,31.23
2023-02-05T00:50:36.215Z,28.20
2023-02-05T00:53:04.130Z,30.00
2023-02-05T00:55:32.404Z,29.47
2023-02-05T00:58:01.718Z,30.03
2023-02-05T01:00:30.029Z,30.63
2023-02-05T01:02:58.387Z,35.17
2023-02-05T01:05:26.668Z,28.80
2023-02-05T01:07:57.936Z,31.47
2023-02-05T01:10:26.794Z,37.73
2023-02-05T01:12:54.965Z,29.90
2023-02-05T01:15:23.375Z,34.07
2023-02-05T01:17:51.946Z,35.03
2023-02-05T01:20:20.741Z,31.87
2023-02-05T01:22:49.849Z,30.63
2023-02-05T01:25:19.410Z,30.10
2023-02-05T01:27:47.692Z,33.27
2023-02-05T01:30:17.482Z,39.43
2023-02-05T01:32:46.592Z,31.67
2023-02-05T01:35:16.228Z,33.47
2023-02-05T01:37:44.780Z,31.30
2023-02-05T01:40:17.177Z,37.80
2023-02-05T01:42:51.215Z,34.50
2023-02-05T01:45:22.614Z,34.07
2023-02-05T01:48:04.456Z,34.27
2023-02-05T01:50:41.402Z,34.13
2023-02-05T01:53:13.652Z,34.87
2023-02-05T01:55:58.368Z,35.67
2023-02-05T01:58:30.348Z,35.80
2023-02-05T02:00:58.772Z,34.90
2023-02-05T02:03:29.151Z,39.17
2023-02-05T02:05:58.000Z,33.90
2023-02-05T02:08:26.597Z,40.13
2023-02-05T02:10:56.777Z,34.67
2023-02-05T02:13:26.633Z,39.27
2023-02-05T02:15:54.939Z,33.93
2023-02-05T02:18:27.935Z,33.70
2023-02-05T02:21:07.951Z,33.67
2023-02-05T02:23:58.662Z,29.80
2023-02-05T02:27:05.766Z,32.87
2023-02-05T02:29:41.557Z,33.50
2023-02-05T02:32:22.048Z,30.80
2023-02-05T02:34:54.791Z,27.67
2023-02-05T02:37:36.388Z,32.67
2023-02-05T02:40:12.562Z,28.40
2023-02-05T02:42:44.446Z,27.67
2023-02-05T02:45:13.687Z,27.50
2023-02-05T02:47:47.146Z,31.07
2023-02-05T02:50:20.638Z,28.70
2023-02-05T02:52:50.332Z,27.40
2023-02-05T02:55:20.664Z,33.97
2023-02-05T02:57:52.243Z,30.20
2023-02-05T03:00:25.671Z,31.20
2023-02-05T03:02:56.481Z,27.57
2023-02-05T03:05:25.803Z,32.20
2023-02-05T03:07:58.160Z,30.67
2023-02-05T03:10:35.197Z,29.80
2023-02-05T03:13:05.431Z,31.50
2023-02-05T03:15:33.833Z,30.00
2023-02-05T03:18:04.947Z,32.83
2023-02-05T03:20:42.126Z,25.37
2023-02-05T03:23:10.326Z,25.77
2023-02-05T03:25:38.841Z,28.37
2023-02-05T03:28:07.709Z,27.23
2023-02-05T03:31:04.824Z,26.20
2023-02-05T03:33:45.045Z,26.63
2023-02-05T03:36:26.225Z,26.37
2023-02-05T03:39:02.700Z,29.30
2023-02-05T03:41:50.752Z,24.03
2023-02-05T03:45:13.805Z,27.23
2023-02-05T03:48:12.564Z,22.10
2023-02-05T03:50:56.095Z,24.47
2023-02-05T03:53:48.007Z,25.27
2023-02-05T03:56:26.938Z,23.23
2023-02-05T03:58:57.540Z,22.53
2023-02-05T04:01:26.690Z,24.53
2023-02-05T04:03:57.501Z,21.37
2023-02-05T04:06:25.289Z,21.53
2023-02-05T04:08:53.284Z,24.13
2023-02-05T04:11:22.965Z,21.80
2023-02-05T04:13:52.179Z,22.27
2023-02-05T04:16:20.262Z,25.47
2023-02-05T04:18:48.446Z,20.27
2023-02-05T04:21:16.378Z,23.93
2023-02-05T04:23:44.583Z,19.77
2023-02-05T04:26:12.978Z,21.60
2023-02-05T04:28:41.000Z,23.40
2023-02-05T04:31:10.010Z,22.20
2023-02-05T04:33:40.599Z,20.47
2023-02-05T04:36:09.556Z,23.07
2023-02-05T04:38:38.378Z,21.70
2023-02-05T04:41:06.828Z,22.17
2023-02-05T04:43:35.399Z,21.33
2023-02-05T04:46:10.329Z,21.97
2023-02-05T04:48:39.351Z,25.17
2023-02-05T04:51:11.981Z,21.90
2023-02-05T04:53:40.809Z,22.80
2023-02-05T04:56:14.571Z,22.50
2023-02-05T04:58:43.610Z,20.87
2023-02-05T05:01:16.206Z,22.03
2023-02-05T05:03:46.125Z,22.27
2023-02-05T05:06:14.723Z,21.10
2023-02-05T05:08:42.996Z,20.23
2023-02-05T05:11:19.580Z,20.67
2023-02-05T05:13:50.075Z,20.83
2023-02-05T05:16:19.069Z,19.20
2023-02-05T05:18:47.776Z,19.30
2023-02-05T05:21:16.946Z,19.63
2023-02-05T05:23:45.321Z,19.97
2023-02-05T05:26:13.908Z,18.30
2023-02-05T05:28:41.763Z,15.63
2023-02-05T05:31:19.990Z,20.80
2023-02-05T05:33:48.756Z,18.33
2023-02-05T05:36:16.896Z,21.40
2023-02-05T05:38:45.071Z,18.77
2023-02-05T05:41:40.325Z,18.00
2023-02-05T05:44:09.034Z,18.07
2023-02-05T05:46:37.306Z,17.27
2023-02-05T05:49:05.751Z,18.03
2023-02-05T05:51:34.276Z,19.40
2023-02-05T05:54:02.393Z,19.47
2023-02-05T05:56:31.123Z,19.93
2023-02-05T05:58:59.934Z,18.53
2023-02-05T06:01:28.584Z,18.57
2023-02-05T06:03:56.676Z,22.53
2023-02-05T06:06:24.774Z,19.97
2023-02-05T06:08:52.871Z,20.07
2023-02-05T06:11:20.716Z,18.30
2023-02-05T06:13:50.058Z,17.60
2023-02-05T06:16:18.346Z,15.70
2023-02-05T06:18:48.512Z,17.10
2023-02-05T06:21:17.014Z,20.47
2023-02-05T06:23:46.236Z,17.43
2023-02-05T06:26:15.328Z,20.07
2023-02-05T06:28:43.617Z,21.00
2023-02-05T06:31:12.038Z,17.47
2023-02-05T06:33:40.265Z,18.47
2023-02-05T06:36:08.861Z,18.63
2023-02-05T06:38:37.099Z,19.47
2023-02-05T06:41:05.140Z,17.33
2023-02-05T06:43:33.329Z,18.40
2023-02-05T06:46:21.713Z,21.30
2023-02-05T06:48:49.718Z,16.73
2023-02-05T06:51:17.902Z,18.00
2023-02-05T06:53:47.147Z,14.90
2023-02-05T06:56:15.481Z,20.47
2023-02-05T06:58:43.617Z,18.13
2023-02-05T07:01:11.841Z,15.50
2023-02-05T07:03:39.871Z,16.53
2023-02-05T07:06:08.424Z,17.20
2023-02-05T07:08:36.677Z,17.57
2023-02-05T07:11:05.561Z,16.30
2023-02-05T07:13:33.788Z,16.73
2023-02-05T07:16:06.145Z,18.57
2023-02-05T07:18:34.809Z,16.23
2023-02-05T07:21:08.013Z,15.73
2023-02-05T07:23:36.884Z,17.50
2023-02-05T07:26:15.709Z,17.13
2023-02-05T07:28:44.866Z,19.37
2023-02-05T07:31:18.204Z,18.30
2023-02-05T07:33:48.033Z,16.23
2023-02-05T07:36:18.072Z,18.37
2023-02-05T07:38:47.698Z,18.03
2023-02-05T07:41:18.714Z,18.20
2023-02-05T07:43:46.892Z,15.63
2023-02-05T07:46:15.727Z,17.03
2023-02-05T07:48:44.280Z,19.10
2023-02-05T07:51:23.240Z,20.33
2023-02-05T07:53:52.722Z,18.40
2023-02-05T07:56:21.980Z,17.70
2023-02-05T07:58:50.077Z,15.07
2023-02-05T08:01:18.272Z,17.70
2023-02-05T08:03:46.930Z,17.80
2023-02-05T08:06:16.261Z,15.93
2023-02-05T08:08:44.719Z,17.57
2023-02-05T08:11:17.341Z,18.13
2023-02-05T08:13:49.027Z,17.60
2023-02-05T08:16:17.941Z,18.53
2023-02-05T08:18:50.860Z,19.43
2023-02-05T08:21:22.158Z,19.73
2023-02-05T08:23:50.600Z,17.77
2023-02-05T08:26:19.287Z,18.33
2023-02-05T08:28:50.073Z,18.53
2023-02-05T08:31:19.254Z,20.00
2023-02-05T08:33:48.104Z,20.10
2023-02-05T08:36:16.868Z,19.10
2023-02-05T08:38:45.021Z,19.73
2023-02-05T08:41:13.267Z,21.10
2023-02-05T08:43:49.132Z,19.37
2023-02-05T08:46:20.539Z,24.13
2023-02-05T08:48:49.305Z,20.73
2023-02-05T08:51:19.757Z,25.30
2023-02-05T08:53:47.707Z,17.27
2023-02-05T08:56:16.974Z,13.87
2023-02-05T08:58:48.886Z,13.43
2023-02-05T09:01:17.722Z,14.33
2023-02-05T09:03:46.204Z,14.80
2023-02-05T09:06:15.920Z,15.13
2023-02-05T09:08:44.276Z,14.00
2023-02-05T09:11:13.750Z,15.13
2023-02-05T09:13:44.709Z,17.90
2023-02-05T09:16:15.128Z,15.30
2023-02-05T09:18:44.036Z,23.77
2023-02-05T09:21:14.076Z,19.93
2023-02-05T09:23:42.430Z,18.57
2023-02-05T09:26:11.492Z,17.43
2023-02-05T09:28:40.973Z,21.20
2023-02-05T09:31:16.887Z,19.50
2023-02-05T09:33:46.592Z,15.10
2023-02-05T09:36:19.942Z,29.10
2023-02-05T09:38:48.555Z,14.90
2023-02-05T09:41:29.233Z,17.00
2023-02-05T09:44:29.744Z,20.13
2023-02-05T09:47:25.079Z,19.33
2023-02-05T09:50:21.875Z,20.77
2023-02-05T09:52:51.728Z,18.07
2023-02-05T09:55:35.153Z,13.13
2023-02-05T09:58:16.027Z,12.03
2023-02-05T10:00:50.095Z,11.43
2023-02-05T10:03:30.736Z,9.93
2023-02-05T10:06:08.095Z,13.23
2023-02-05T10:09:13.773Z,12.93
2023-02-05T10:12:03.701Z,10.87
2023-02-05T10:14:58.221Z,10.23
2023-02-05T10:17:32.434Z,11.03
2023-02-05T10:20:26.607Z,13.13
2023-02-05T10:23:15.983Z,14.30
2023-02-05T10:25:55.904Z,17.47
2023-02-05T10:28:36.624Z,18.67
2023-02-05T10:31:43.918Z,16.50
2023-02-05T10:34:20.907Z,16.00
2023-02-05T10:36:52.851Z,14.70
2023-02-05T10:39:26.629Z,16.60
2023-02-05T10:42:06.982Z,13.57
2023-02-05T10:44:43.917Z,13.77
2023-02-05T10:47:19.113Z,18.93
2023-02-05T10:49:56.837Z,14.33
2023-02-05T10:52:24.875Z,12.70
2023-02-05T10:54:53.215Z,13.17
2023-02-05T10:57:23.221Z,13.23
2023-02-05T11:00:00.310Z,13.73
2023-02-05T11:02:59.332Z,13.67
2023-02-05T11:05:35.191Z,14.47
2023-02-05T11:08:04.323Z,14.10
2023-02-05T11:10:34.995Z,15.93
2023-02-05T11:13:21.761Z,17.13
2023-02-05T11:16:01.173Z,16.83
2023-02-05T11:18:36.619Z,16.57
2023-02-05T11:21:09.009Z,17.37
2023-02-05T11:23:41.273Z,20.97
2023-02-05T11:26:10.622Z,21.83
2023-02-05T11:28:42.615Z,17.30
2023-02-05T11:31:21.903Z,18.70
2023-02-05T11:33:50.677Z,20.83
2023-02-05T11:36:27.418Z,18.00
2023-02-05T11:38:59.801Z,22.20
2023-02-05T11:41:52.222Z,20.80
2023-02-05T11:44:25.448Z,18.27
2023-02-05T11:46:58.091Z,20.00
2023-02-05T11:49:37.728Z,20.27
2023-02-05T11:52:11.563Z,17.90
2023-02-05T11:54:46.338Z,17.73
2023-02-05T11:57:20.362Z,19.87
2023-02-05T11:59:58.442Z,23.43
2023-02-05T12:02:33.849Z,22.50
2023-02-05T12:05:17.210Z,20.57
2023-02-05T12:07:56.996Z,21.17
2023-02-05T12:10:38.792Z,19.30
2023-02-05T12:13:10.732Z,20.13
2023-02-05T12:16:11.916Z,20.03
2023-02-05T12:19:15.116Z,18.50
2023-02-05T12:22:21.344Z,20.07
2023-02-05T12:25:19.914Z,12.40
2023-02-05T12:28:01.314Z,7.07
2023-02-05T12:30:47.792Z,9.47
2023-02-05T12:33:51.913Z,9.73
2023-02-05T12:36:29.858Z,8.50
2023-02-05T12:39:26.498Z,10.00
2023-02-05T12:41:58.031Z,12.33
2023-02-05T12:44:46.089Z,15.80
2023-02-05T12:47:45.612Z,10.67
2023-02-05T12:50:40.477Z,10.83
2023-02-05T12:53:08.398Z,11.60
2023-02-05T12:55:49.164Z,13.07
2023-02-05T12:58:20.024Z,19.80
2023-02-05T13:00:56.621Z,24.73
2023-02-05T13:03:33.982Z,22.53
2023-02-05T13:06:12.668Z,22.10
2023-02-05T13:08:51.289Z,18.43
2023-02-05T13:11:29.163Z,18.07
2023-02-05T13:14:03.085Z,17.20
2023-02-05T13:16:46.423Z,16.37
2023-02-05T13:19:24.084Z,21.43
2023-02-05T13:22:12.123Z,18.50
2023-02-05T13:25:17.832Z,19.27
2023-02-05T13:28:23.389Z,19.63
2023-02-05T13:30:55.613Z,17.87
2023-02-05T13:33:23.700Z,18.47
2023-02-05T13:36:09.962Z,15.07
2023-02-05T13:38:58.284Z,14.70
2023-02-05T13:42:00.738Z,11.93
2023-02-05T13:44:53.366Z,14.00
2023-02-05T13:47:24.508Z,12.43
2023-02-05T13:50:11.276Z,16.10
2023-02-05T13:52:45.343Z,16.23
2023-02-05T13:55:16.928Z,20.73
2023-02-05T13:58:11.844Z,17.73
2023-02-05T14:00:42.543Z,18.17
2023-02-05T14:03:26.840Z,21.97
2023-02-05T14:05:55.060Z,20.53
2023-02-05T14:08:27.569Z,20.00
2023-02-05T14:11:02.744Z,21.13
2023-02-05T14:13:34.650Z,19.90
2023-02-05T14:16:38.121Z,20.83
2023-02-05T14:19:15.154Z,22.80
2023-02-05T14:21:46.136Z,23.47
2023-02-05T14:24:29.114Z,25.47
2023-02-05T14:27:01.056Z,26.90
2023-02-05T14:29:43.075Z,21.73
2023-02-05T14:32:40.168Z,24.87
2023-02-05T14:35:32.309Z,24.90
2023-02-05T14:38:03.063Z,24.63
2023-02-05T14:40:37.372Z,25.03
2023-02-05T14:43:46.901Z,24.70
2023-02-05T14:46:33.459Z,22.90
2023-02-05T14:49:03.571Z,24.13
2023-02-05T14:51:51.338Z,27.03
2023-02-05T14:54:25.703Z,24.00
2023-02-05T14:57:19.969Z,26.03
2023-02-05T14:59:57.836Z,25.23
2023-02-05T15:03:03.963Z,33.57
2023-02-05T15:05:45.919Z,17.47
2023-02-05T15:08:35.517Z,18.23
2023-02-05T15:11:42.930Z,17.30
2023-02-05T15:14:27.360Z,15.93
2023-02-05T15:17:35.698Z,17.23
2023-02-05T15:20:34.240Z,17.50
2023-02-05T15:23:06.302Z,21.83
2023-02-05T15:25:44.748Z,23.80
2023-02-05T15:28:33.092Z,25.10
2023-02-05T15:31:15.144Z,24.57
2023-02-05T15:33:53.074Z,28.30
2023-02-05T15:36:27.740Z,25.47
2023-02-05T15:39:25.203Z,34.40
2023-02-05T15:41:56.788Z,27.53
2023-02-05T15:44:30.748Z,33.03
2023-02-05T15:47:03.708Z,26.20
2023-02-05T15:49:50.372Z,21.50
2023-02-05T15:52:22.641Z,23.63
2023-02-05T15:54:53.551Z,19.30
2023-02-05T15:57:27.239Z,21.00
2023-02-05T15:59:56.821Z,21.23
2023-02-05T16:02:27.729Z,20.43
2023-02-05T16:05:08.096Z,24.93
2023-02-05T16:07:41.473Z,23.27
2023-02-05T16:10:22.524Z,23.97
2023-02-05T16:13:04.745Z,27.60
2023-02-05T16:15:40.977Z,28.47
2023-02-05T16:18:25.581Z,28.80
2023-02-05T16:20:57.927Z,31.10
2023-02-05T16:23:30.412Z,23.53
2023-02-05T16:26:02.643Z,26.67
2023-02-05T16:29:01.684Z,26.90
2023-02-05T16:34:18.983Z,28.57
2023-02-05T16:36:50.591Z,28.23
2023-02-05T16:39:27.797Z,26.73
2023-02-05T16:42:07.075Z,23.97
2023-02-05T16:44:40.880Z,28.27
2023-02-05T16:47:18.045Z,21.27
2023-02-05T16:49:49.328Z,23.00
2023-02-05T16:52:25.895Z,21.73
2023-02-05T16:54:54.327Z,23.47
2023-02-05T16:57:38.169Z,28.33
2023-02-05T17:00:19.195Z,20.87
2023-02-05T17:02:47.891Z,23.13
2023-02-05T17:05:25.593Z,23.43
2023-02-05T17:07:58.604Z,23.50
2023-02-05T17:10:29.235Z,25.37
2023-02-05T17:13:07.279Z,22.80
2023-02-05T17:15:42.740Z,23.90
2023-02-05T17:18:25.462Z,22.30
2023-02-05T17:21:23.739Z,27.43
2023-02-05T17:23:53.354Z,20.20
2023-02-05T17:26:25.401Z,21.17
2023-02-05T17:28:56.490Z,23.13
2023-02-05T17:31:26.687Z,23.27
2023-02-05T17:33:58.971Z,22.00
2023-02-05T17:36:27.494Z,21.53
2023-02-05T17:38:55.677Z,23.83
2023-02-05T17:41:47.058Z,23.67
2023-02-05T17:44:17.398Z,22.70
2023-02-05T17:46:46.959Z,23.93
2023-02-05T17:49:15.237Z,24.63
2023-02-05T17:51:44.203Z,28.00
2023-02-05T17:54:23.382Z,25.60
2023-02-05T17:56:54.574Z,22.73
2023-02-05T17:59:25.066Z,25.23
2023-02-05T18:01:53.659Z,27.37
2023-02-05T18:04:21.878Z,24.23
2023-02-05T18:06:50.478Z,21.33
2023-02-05T18:09:20.966Z,24.53
2023-02-05T18:11:51.708Z,22.03
2023-02-05T18:14:22.172Z,20.20
2023-02-05T18:16:50.592Z,24.83
2023-02-05T18:19:18.792Z,22.27
2023-02-05T18:21:48.419Z,21.53
2023-02-05T18:24:19.269Z,25.23
2023-02-05T18:26:52.731Z,22.13
2023-02-05T18:29:21.807Z,18.83
2023-02-05T18:31:49.842Z,21.83
2023-02-05T18:34:18.103Z,19.07
2023-02-05T18:36:46.818Z,22.63
2023-02-05T18:39:15.102Z,21.47
2023-02-05T18:41:43.043Z,22.73
2023-02-05T18:44:11.745Z,23.43
2023-02-05T18:46:41.307Z,21.00
2023-02-05T18:49:12.366Z,22.77
2023-02-05T18:51:44.562Z,21.97
2023-02-05T18:54:15.012Z,18.17
2023-02-05T18:56:43.818Z,21.57
2023-02-05T18:59:16.076Z,22.77
2023-02-05T19:01:45.879Z,14.67
2023-02-05T19:04:15.878Z,19.47
2023-02-05T19:06:49.370Z,20.60
2023-02-05T19:09:17.831Z,21.77
2023-02-05T19:11:47.148Z,25.80
2023-02-05T19:14:17.526Z,20.53
2023-02-05T19:16:47.672Z,20.23
2023-02-05T19:19:18.058Z,21.13
2023-02-05T19:21:48.003Z,20.73
2023-02-05T19:24:18.836Z,24.13
2023-02-05T19:26:49.994Z,22.37
2023-02-05T19:29:22.818Z,15.57
2023-02-05T19:31:53.740Z,20.77
2023-02-05T19:34:25.010Z,23.00
2023-02-05T19:36:53.228Z,20.43
2023-02-05T19:39:21.625Z,21.43
2023-02-05T19:41:52.566Z,22.23
2023-02-05T19:44:24.163Z,20.33
2023-02-05T19:46:55.257Z,22.23
2023-02-05T19:49:23.772Z,19.97
2023-02-05T19:51:59.831Z,24.67
2023-02-05T19:54:29.795Z,23.17
2023-02-05T19:56:58.635Z,23.70
2023-02-05T19:59:27.912Z,23.33
2023-02-05T20:01:56.363Z,21.37
2023-02-05T20:04:29.029Z,23.77
2023-02-05T20:06:59.702Z,23.33
2023-02-05T20:09:28.848Z,22.57
2023-02-05T20:11:59.824Z,23.10
2023-02-05T20:14:29.912Z,25.67
2023-02-05T20:16:58.529Z,24.77
2023-02-05T20:19:27.147Z,28.07
2023-02-05T20:21:55.261Z,24.07
2023-02-05T20:24:23.585Z,27.93
2023-02-05T20:26:59.416Z,26.07
2023-02-05T20:29:46.421Z,25.60
2023-02-05T20:32:14.522Z,25.63
2023-02-05T20:34:48.102Z,23.67
2023-02-05T20:37:20.355Z,25.03
2023-02-05T20:39:49.716Z,21.53
2023-02-05T20:42:17.787Z,21.33
2023-02-05T20:44:45.911Z,19.43
2023-02-05T20:47:16.010Z,21.63
2023-02-05T20:49:44.512Z,22.00
2023-02-05T20:52:13.333Z,21.27
2023-02-05T20:54:45.208Z,23.60
2023-02-05T20:57:13.588Z,19.00
2023-02-05T20:59:42.395Z,25.27
2023-02-05T21:02:11.087Z,23.27
2023-02-05T21:04:40.444Z,26.87
2023-02-05T21:07:10.696Z,23.97
2023-02-05T21:09:39.697Z,22.57
2023-02-05T21:12:08.101Z,23.47
2023-02-05T21:14:37.588Z,25.40
2023-02-05T21:17:09.685Z,27.20
2023-02-05T21:19:39.155Z,24.30
2023-02-05T21:22:07.358Z,27.53
2023-02-05T21:24:35.593Z,28.43
2023-02-05T21:27:04.010Z,26.43
2023-02-05T21:29:34.656Z,27.03
2023-02-05T21:32:03.192Z,28.27
2023-02-05T21:34:31.436Z,24.53
2023-02-05T21:37:00.329Z,25.87
2023-02-05T21:39:33.067Z,28.67
2023-02-05T21:42:01.850Z,27.63
2023-02-05T21:44:32.923Z,24.73
2023-02-05T21:47:01.468Z,22.60
2023-02-05T21:49:30.499Z,23.70
2023-02-05T21:51:59.176Z,26.37
2023-02-05T21:54:29.826Z,27.50
2023-02-05T21:56:58.306Z,23.47
2023-02-05T21:59:29.184Z,23.87
2023-02-05T22:01:57.832Z,23.83
2023-02-05T22:04:26.061Z,25.13
2023-02-05T22:06:54.813Z,24.17
2023-02-05T22:09:23.946Z,25.87
2023-02-05T22:11:52.276Z,24.97
2023-02-05T22:14:22.637Z,27.67
2023-02-05T22:16:50.973Z,25.70
2023-02-05T22:19:20.210Z,26.63
2023-02-05T22:21:49.056Z,26.83
2023-02-05T22:24:19.432Z,23.57
2023-02-05T22:26:48.362Z,20.93
2023-02-05T22:29:19.495Z,24.43
2023-02-05T22:31:52.420Z,23.10
2023-02-05T22:34:21.142Z,24.73
2023-02-05T22:36:49.251Z,23.00
2023-02-05T22:39:17.743Z,17.53
2023-02-05T22:41:45.991Z,23.07
2023-02-05T22:44:15.198Z,21.30
2023-02-05T22:46:44.902Z,23.40
2023-02-05T22:49:15.685Z,22.23
2023-02-05T22:51:44.697Z,21.93
2023-02-05T22:54:14.150Z,20.87
2023-02-05T22:56:45.440Z,20.03
2023-02-05T22:59:13.878Z,23.37
2023-02-05T23:01:44.610Z,20.07
2023-02-05T23:04:12.638Z,19.33
2023-02-05T23:06:43.228Z,20.53
2023-02-05T23:09:17.231Z,19.33
2023-02-05T23:11:49.408Z,20.87
2023-02-05T23:14:18.671Z,15.77
2023-02-05T23:16:48.584Z,19.77
2023-02-05T23:19:22.847Z,18.33
2023-02-05T23:21:51.129Z,19.03
2023-02-05T23:24:20.062Z,17.00
2023-02-05T23:26:51.053Z,19.60
2023-02-05T23:29:19.226Z,17.77
2023-02-05T23:31:47.605Z,19.70
2023-02-05T23:34:15.624Z,19.03
2023-02-05T23:36:44.227Z,19.80
2023-02-05T23:39:12.635Z,17.20
2023-02-05T23:41:44.862Z,18.83
2023-02-05T23:44:16.490Z,18.33
2023-02-05T23:46:46.787Z,19.27
2023-02-05T23:49:22.208Z,16.83
2023-02-05T23:51:52.342Z,17.20
2023-02-05T23:54:22.129Z,18.03
2023-02-05T23:56:50.749Z,18.10
2023-02-05T23:59:19.196Z,17.20
